Port Salerno, Florida
Current Conditions -  °F | °C
As of 3:35 AM on Friday 28 Nov 2014 (Local Time) from KSUA Reporting Station
Clear Clear  
Wind Chill: 50°   Ceiling: Unl
Heat Index: 50°   Visibility: 10mi
Dew Point: 39°   Wind: 8mph
Humidity: 66%   Direction: 330°NNW
Pressure: 30.21"   Gusts: NA
Location:  27.15°N, 80.2°W
Report Text: KSUA 280835Z AUTO 33007KT 10SM CLR 10/04 A3021 RMK AO2
Loading
Personal Weather Stations






























Interactive Weather Map New forecast layout! Learn more

10-Day Weather Forecast

Advertisements
Track Severe Weather on mobile